sensor_id;sensor_type;location;lat;lon;timestamp;P1;durP1;ratioP1;P2;durP2;ratioP2
19004;SDS011;9635;52.078;8.648;2024-03-02T00:03:04;12.18;;;8.50;;
19004;SDS011;9635;52.078;8.648;2024-03-02T00:08:12;13.20;;;8.75;;
19004;SDS011;9635;52.078;8.648;2024-03-02T00:13:20;15.43;;;9.55;;
19004;SDS011;9635;52.078;8.648;2024-03-02T00:18:26;13.20;;;9.27;;
19004;SDS011;9635;52.078;8.648;2024-03-02T00:23:34;12.68;;;9.23;;
19004;SDS011;9635;52.078;8.648;2024-03-02T00:28:37;13.43;;;9.18;;
19004;SDS011;9635;52.078;8.648;2024-03-02T00:33:46;15.02;;;9.48;;
19004;SDS011;9635;52.078;8.648;2024-03-02T00:38:52;13.57;;;9.35;;
19004;SDS011;9635;52.078;8.648;2024-03-02T00:43:59;13.57;;;9.48;;
19004;SDS011;9635;52.078;8.648;2024-03-02T00:49:03;18.42;;;9.20;;
19004;SDS011;9635;52.078;8.648;2024-03-02T00:54:09;13.68;;;9.32;;
19004;SDS011;9635;52.078;8.648;2024-03-02T00:59:13;12.65;;;9.00;;
19004;SDS011;9635;52.078;8.648;2024-03-02T01:04:16;14.52;;;9.25;;
19004;SDS011;9635;52.078;8.648;2024-03-02T01:09:20;14.02;;;9.65;;
19004;SDS011;9635;52.078;8.648;2024-03-02T01:14:24;12.50;;;8.93;;
19004;SDS011;9635;52.078;8.648;2024-03-02T01:19:27;11.95;;;8.80;;
19004;SDS011;9635;52.078;8.648;2024-03-02T01:24:31;12.52;;;8.65;;
19004;SDS011;9635;52.078;8.648;2024-03-02T01:29:34;14.55;;;9.32;;
19004;SDS011;9635;52.078;8.648;2024-03-02T01:34:37;15.02;;;10.15;;
19004;SDS011;9635;52.078;8.648;2024-03-02T01:39:42;15.35;;;10.93;;
19004;SDS011;9635;52.078;8.648;2024-03-02T01:44:45;13.38;;;9.65;;
19004;SDS011;9635;52.078;8.648;2024-03-02T01:49:48;14.50;;;10.80;;
19004;SDS011;9635;52.078;8.648;2024-03-02T01:54:53;16.27;;;10.30;;
19004;SDS011;9635;52.078;8.648;2024-03-02T01:59:56;16.27;;;10.73;;
19004;SDS011;9635;52.078;8.648;2024-03-02T02:04:59;14.27;;;10.27;;
19004;SDS011;9635;52.078;8.648;2024-03-02T02:10:04;19.38;;;11.98;;
19004;SDS011;9635;52.078;8.648;2024-03-02T02:15:26;19.00;;;12.18;;
19004;SDS011;9635;52.078;8.648;2024-03-02T02:20:30;18.85;;;12.65;;
19004;SDS011;9635;52.078;8.648;2024-03-02T02:25:35;20.60;;;13.23;;
19004;SDS011;9635;52.078;8.648;2024-03-02T02:30:38;20.83;;;13.13;;
19004;SDS011;9635;52.078;8.648;2024-03-02T02:35:41;22.90;;;13.65;;
19004;SDS011;9635;52.078;8.648;2024-03-02T02:40:45;20.33;;;13.60;;
19004;SDS011;9635;52.078;8.648;2024-03-02T02:45:48;21.35;;;13.80;;
19004;SDS011;9635;52.078;8.648;2024-03-02T02:50:51;22.58;;;13.63;;
19004;SDS011;9635;52.078;8.648;2024-03-02T02:55:56;20.08;;;12.85;;
19004;SDS011;9635;52.078;8.648;2024-03-02T03:00:59;18.88;;;12.75;;
19004;SDS011;9635;52.078;8.648;2024-03-02T03:06:02;19.15;;;13.38;;
19004;SDS011;9635;52.078;8.648;2024-03-02T03:17:54;19.63;;;13.15;;
19004;SDS011;9635;52.078;8.648;2024-03-02T03:22:57;24.08;;;14.40;;
19004;SDS011;9635;52.078;8.648;2024-03-02T03:28:00;24.08;;;14.10;;
19004;SDS011;9635;52.078;8.648;2024-03-02T03:33:06;21.15;;;14.77;;
19004;SDS011;9635;52.078;8.648;2024-03-02T03:38:09;20.02;;;14.95;;
19004;SDS011;9635;52.078;8.648;2024-03-02T03:43:12;22.38;;;14.45;;
19004;SDS011;9635;52.078;8.648;2024-03-02T03:48:16;20.08;;;13.68;;
19004;SDS011;9635;52.078;8.648;2024-03-02T03:53:20;23.35;;;13.75;;
19004;SDS011;9635;52.078;8.648;2024-03-02T03:58:23;20.20;;;13.35;;
19004;SDS011;9635;52.078;8.648;2024-03-02T04:03:27;20.00;;;13.10;;
19004;SDS011;9635;52.078;8.648;2024-03-02T04:08:31;24.40;;;14.50;;
19004;SDS011;9635;52.078;8.648;2024-03-02T04:13:34;22.15;;;14.13;;
19004;SDS011;9635;52.078;8.648;2024-03-02T04:18:39;21.80;;;14.15;;
19004;SDS011;9635;52.078;8.648;2024-03-02T04:23:42;20.90;;;13.43;;
19004;SDS011;9635;52.078;8.648;2024-03-02T04:28:45;25.02;;;14.35;;
19004;SDS011;9635;52.078;8.648;2024-03-02T04:33:49;21.65;;;14.65;;
19004;SDS011;9635;52.078;8.648;2024-03-02T04:38:52;22.85;;;15.23;;
19004;SDS011;9635;52.078;8.648;2024-03-02T04:43:55;23.10;;;14.82;;
19004;SDS011;9635;52.078;8.648;2024-03-02T04:48:59;24.70;;;15.73;;
19004;SDS011;9635;52.078;8.648;2024-03-02T04:54:02;25.30;;;15.43;;
19004;SDS011;9635;52.078;8.648;2024-03-02T04:59:05;29.67;;;16.75;;
19004;SDS011;9635;52.078;8.648;2024-03-02T05:04:10;26.17;;;16.15;;
19004;SDS011;9635;52.078;8.648;2024-03-02T05:09:14;30.02;;;17.38;;
19004;SDS011;9635;52.078;8.648;2024-03-02T05:14:17;26.33;;;16.80;;
19004;SDS011;9635;52.078;8.648;2024-03-02T05:19:21;27.13;;;16.75;;
19004;SDS011;9635;52.078;8.648;2024-03-02T05:24:24;26.85;;;16.77;;
19004;SDS011;9635;52.078;8.648;2024-03-02T05:29:28;24.60;;;15.07;;
19004;SDS011;9635;52.078;8.648;2024-03-02T05:34:33;26.92;;;15.98;;
19004;SDS011;9635;52.078;8.648;2024-03-02T05:39:36;26.83;;;16.17;;
19004;SDS011;9635;52.078;8.648;2024-03-02T05:44:39;23.20;;;14.90;;
19004;SDS011;9635;52.078;8.648;2024-03-02T05:49:44;24.27;;;14.75;;
19004;SDS011;9635;52.078;8.648;2024-03-02T05:54:47;27.05;;;15.60;;
19004;SDS011;9635;52.078;8.648;2024-03-02T05:59:50;23.65;;;15.10;;
19004;SDS011;9635;52.078;8.648;2024-03-02T06:04:55;28.80;;;15.45;;
19004;SDS011;9635;52.078;8.648;2024-03-02T06:09:58;29.73;;;16.05;;
19004;SDS011;9635;52.078;8.648;2024-03-02T06:15:02;31.65;;;17.10;;
19004;SDS011;9635;52.078;8.648;2024-03-02T06:20:07;30.02;;;17.17;;
19004;SDS011;9635;52.078;8.648;2024-03-02T06:25:11;27.40;;;16.42;;
19004;SDS011;9635;52.078;8.648;2024-03-02T06:30:14;29.13;;;17.42;;
19004;SDS011;9635;52.078;8.648;2024-03-02T06:35:19;30.00;;;17.15;;
19004;SDS011;9635;52.078;8.648;2024-03-02T06:40:22;30.85;;;17.17;;
19004;SDS011;9635;52.078;8.648;2024-03-02T06:45:25;30.73;;;18.45;;
19004;SDS011;9635;52.078;8.648;2024-03-02T06:50:29;32.17;;;17.23;;
19004;SDS011;9635;52.078;8.648;2024-03-02T06:55:32;33.38;;;19.33;;
19004;SDS011;9635;52.078;8.648;2024-03-02T07:00:35;29.88;;;18.13;;
19004;SDS011;9635;52.078;8.648;2024-03-02T07:05:39;35.15;;;19.92;;
19004;SDS011;9635;52.078;8.648;2024-03-02T07:10:43;38.17;;;20.67;;
19004;SDS011;9635;52.078;8.648;2024-03-02T07:15:46;36.22;;;20.95;;
19004;SDS011;9635;52.078;8.648;2024-03-02T07:21:14;35.38;;;19.65;;
19004;SDS011;9635;52.078;8.648;2024-03-02T07:26:16;35.55;;;18.90;;
19004;SDS011;9635;52.078;8.648;2024-03-02T07:31:23;43.97;;;20.95;;
19004;SDS011;9635;52.078;8.648;2024-03-02T07:36:27;32.10;;;19.45;;
19004;SDS011;9635;52.078;8.648;2024-03-02T07:41:30;26.75;;;16.35;;
19004;SDS011;9635;52.078;8.648;2024-03-02T07:46:34;27.27;;;16.83;;
19004;SDS011;9635;52.078;8.648;2024-03-02T07:51:38;25.83;;;15.88;;
19004;SDS011;9635;52.078;8.648;2024-03-02T07:56:41;32.00;;;18.15;;
19004;SDS011;9635;52.078;8.648;2024-03-02T08:07:23;29.73;;;17.85;;
19004;SDS011;9635;52.078;8.648;2024-03-02T08:12:26;32.55;;;17.55;;
19004;SDS011;9635;52.078;8.648;2024-03-02T08:17:29;29.77;;;18.05;;
19004;SDS011;9635;52.078;8.648;2024-03-02T08:22:36;25.60;;;16.77;;
19004;SDS011;9635;52.078;8.648;2024-03-02T08:27:39;25.17;;;16.00;;
19004;SDS011;9635;52.078;8.648;2024-03-02T08:32:42;21.52;;;12.55;;
19004;SDS011;9635;52.078;8.648;2024-03-02T08:37:48;19.50;;;11.90;;
19004;SDS011;9635;52.078;8.648;2024-03-02T08:42:51;17.52;;;11.30;;
19004;SDS011;9635;52.078;8.648;2024-03-02T08:47:55;17.58;;;11.45;;
19004;SDS011;9635;52.078;8.648;2024-03-02T08:52:59;18.17;;;11.75;;
19004;SDS011;9635;52.078;8.648;2024-03-02T08:58:02;17.15;;;11.63;;
19004;SDS011;9635;52.078;8.648;2024-03-02T09:03:06;19.02;;;11.75;;
19004;SDS011;9635;52.078;8.648;2024-03-02T09:08:10;15.45;;;10.05;;
19004;SDS011;9635;52.078;8.648;2024-03-02T09:13:13;16.40;;;9.60;;
19004;SDS011;9635;52.078;8.648;2024-03-02T09:18:16;11.85;;;7.60;;
19004;SDS011;9635;52.078;8.648;2024-03-02T09:23:20;14.70;;;9.90;;
19004;SDS011;9635;52.078;8.648;2024-03-02T09:28:23;12.32;;;8.45;;
19004;SDS011;9635;52.078;8.648;2024-03-02T09:33:26;11.02;;;6.85;;
19004;SDS011;9635;52.078;8.648;2024-03-02T09:38:33;12.20;;;6.15;;
19004;SDS011;9635;52.078;8.648;2024-03-02T09:43:36;10.65;;;6.25;;
19004;SDS011;9635;52.078;8.648;2024-03-02T09:48:39;9.82;;;6.32;;
19004;SDS011;9635;52.078;8.648;2024-03-02T09:53:43;9.07;;;6.22;;
19004;SDS011;9635;52.078;8.648;2024-03-02T09:58:46;11.00;;;6.40;;
19004;SDS011;9635;52.078;8.648;2024-03-02T10:03:50;9.45;;;5.85;;
19004;SDS011;9635;52.078;8.648;2024-03-02T10:08:55;11.25;;;6.68;;
19004;SDS011;9635;52.078;8.648;2024-03-02T10:14:05;10.57;;;6.55;;
19004;SDS011;9635;52.078;8.648;2024-03-02T10:19:14;11.80;;;6.50;;
19004;SDS011;9635;52.078;8.648;2024-03-02T10:24:20;10.48;;;7.00;;
19004;SDS011;9635;52.078;8.648;2024-03-02T10:29:24;11.18;;;7.20;;
19004;SDS011;9635;52.078;8.648;2024-03-02T10:34:29;10.43;;;7.00;;
19004;SDS011;9635;52.078;8.648;2024-03-02T10:39:35;10.00;;;6.43;;
19004;SDS011;9635;52.078;8.648;2024-03-02T10:44:38;9.18;;;5.80;;
19004;SDS011;9635;52.078;8.648;2024-03-02T10:49:42;8.00;;;6.20;;
19004;SDS011;9635;52.078;8.648;2024-03-02T10:54:47;7.55;;;5.88;;
19004;SDS011;9635;52.078;8.648;2024-03-02T10:59:51;9.02;;;6.45;;
19004;SDS011;9635;52.078;8.648;2024-03-02T11:04:59;8.43;;;5.03;;
19004;SDS011;9635;52.078;8.648;2024-03-02T11:10:11;9.75;;;6.65;;
19004;SDS011;9635;52.078;8.648;2024-03-02T11:15:18;7.10;;;5.63;;
19004;SDS011;9635;52.078;8.648;2024-03-02T11:20:21;7.63;;;5.10;;
19004;SDS011;9635;52.078;8.648;2024-03-02T11:25:27;7.15;;;5.75;;
19004;SDS011;9635;52.078;8.648;2024-03-02T11:30:49;9.43;;;5.97;;
19004;SDS011;9635;52.078;8.648;2024-03-02T11:35:53;7.38;;;5.63;;
19004;SDS011;9635;52.078;8.648;2024-03-02T11:41:01;6.75;;;6.00;;
19004;SDS011;9635;52.078;8.648;2024-03-02T11:46:05;7.38;;;5.45;;
19004;SDS011;9635;52.078;8.648;2024-03-02T11:51:09;8.55;;;5.57;;
19004;SDS011;9635;52.078;8.648;2024-03-02T11:56:15;6.57;;;5.47;;
19004;SDS011;9635;52.078;8.648;2024-03-02T12:01:23;8.68;;;6.15;;
19004;SDS011;9635;52.078;8.648;2024-03-02T12:06:26;7.32;;;5.72;;
19004;SDS011;9635;52.078;8.648;2024-03-02T12:11:32;6.00;;;5.40;;
19004;SDS011;9635;52.078;8.648;2024-03-02T12:16:35;6.43;;;4.88;;
19004;SDS011;9635;52.078;8.648;2024-03-02T12:21:40;6.57;;;5.45;;
19004;SDS011;9635;52.078;8.648;2024-03-02T12:26:44;8.80;;;4.82;;
19004;SDS011;9635;52.078;8.648;2024-03-02T12:31:48;6.38;;;5.43;;
19004;SDS011;9635;52.078;8.648;2024-03-02T12:36:51;6.80;;;5.20;;
19004;SDS011;9635;52.078;8.648;2024-03-02T12:41:56;5.68;;;4.22;;
19004;SDS011;9635;52.078;8.648;2024-03-02T12:46:59;10.05;;;5.20;;
19004;SDS011;9635;52.078;8.648;2024-03-02T12:52:03;6.28;;;5.45;;
19004;SDS011;9635;52.078;8.648;2024-03-02T12:57:08;6.35;;;5.00;;
19004;SDS011;9635;52.078;8.648;2024-03-02T13:02:16;4.50;;;4.10;;
19004;SDS011;9635;52.078;8.648;2024-03-02T13:07:20;5.40;;;4.10;;
19004;SDS011;9635;52.078;8.648;2024-03-02T13:12:25;4.25;;;3.80;;
19004;SDS011;9635;52.078;8.648;2024-03-02T13:17:28;4.70;;;4.20;;
19004;SDS011;9635;52.078;8.648;2024-03-02T13:22:38;4.25;;;3.55;;
19004;SDS011;9635;52.078;8.648;2024-03-02T13:27:43;3.47;;;3.00;;
19004;SDS011;9635;52.078;8.648;2024-03-02T13:32:46;4.38;;;3.60;;
19004;SDS011;9635;52.078;8.648;2024-03-02T13:37:49;3.17;;;2.88;;
19004;SDS011;9635;52.078;8.648;2024-03-02T13:42:53;4.60;;;2.70;;
19004;SDS011;9635;52.078;8.648;2024-03-02T13:47:57;3.30;;;3.00;;
19004;SDS011;9635;52.078;8.648;2024-03-02T13:53:00;3.50;;;2.92;;
19004;SDS011;9635;52.078;8.648;2024-03-02T13:58:05;3.05;;;2.75;;
19004;SDS011;9635;52.078;8.648;2024-03-02T14:03:09;3.45;;;2.85;;
19004;SDS011;9635;52.078;8.648;2024-03-02T14:08:12;2.92;;;1.77;;
19004;SDS011;9635;52.078;8.648;2024-03-02T14:13:16;3.22;;;2.65;;
19004;SDS011;9635;52.078;8.648;2024-03-02T14:18:19;4.22;;;2.22;;
19004;SDS011;9635;52.078;8.648;2024-03-02T14:23:23;1.77;;;1.67;;
19004;SDS011;9635;52.078;8.648;2024-03-02T14:28:31;3.90;;;2.15;;
19004;SDS011;9635;52.078;8.648;2024-03-02T14:33:51;2.40;;;1.92;;
19004;SDS011;9635;52.078;8.648;2024-03-02T14:38:54;2.15;;;1.90;;
19004;SDS011;9635;52.078;8.648;2024-03-02T14:43:59;2.72;;;1.98;;
19004;SDS011;9635;52.078;8.648;2024-03-02T14:49:02;2.25;;;1.73;;
19004;SDS011;9635;52.078;8.648;2024-03-02T14:54:05;2.80;;;1.70;;
19004;SDS011;9635;52.078;8.648;2024-03-02T14:59:10;2.55;;;1.50;;
19004;SDS011;9635;52.078;8.648;2024-03-02T15:04:13;2.38;;;2.10;;
19004;SDS011;9635;52.078;8.648;2024-03-02T15:09:20;3.10;;;2.80;;
19004;SDS011;9635;52.078;8.648;2024-03-02T15:14:24;3.22;;;2.65;;
19004;SDS011;9635;52.078;8.648;2024-03-02T15:19:27;3.60;;;2.85;;
19004;SDS011;9635;52.078;8.648;2024-03-02T15:24:30;5.43;;;3.30;;
19004;SDS011;9635;52.078;8.648;2024-03-02T15:29:35;4.70;;;3.10;;
19004;SDS011;9635;52.078;8.648;2024-03-02T15:34:38;3.17;;;2.85;;
19004;SDS011;9635;52.078;8.648;2024-03-02T15:39:41;4.35;;;2.63;;
19004;SDS011;9635;52.078;8.648;2024-03-02T15:44:46;3.85;;;2.92;;
19004;SDS011;9635;52.078;8.648;2024-03-02T15:49:49;3.58;;;3.08;;
19004;SDS011;9635;52.078;8.648;2024-03-02T15:54:52;4.03;;;2.67;;
19004;SDS011;9635;52.078;8.648;2024-03-02T15:59:57;3.67;;;2.53;;
19004;SDS011;9635;52.078;8.648;2024-03-02T16:05:00;7.85;;;5.60;;
19004;SDS011;9635;52.078;8.648;2024-03-02T16:10:03;4.90;;;3.10;;
19004;SDS011;9635;52.078;8.648;2024-03-02T16:15:10;5.47;;;4.50;;
19004;SDS011;9635;52.078;8.648;2024-03-02T16:20:13;3.92;;;3.38;;
19004;SDS011;9635;52.078;8.648;2024-03-02T16:25:17;4.88;;;2.88;;
19004;SDS011;9635;52.078;8.648;2024-03-02T16:30:21;3.90;;;2.90;;
19004;SDS011;9635;52.078;8.648;2024-03-02T16:35:26;4.97;;;3.35;;
19004;SDS011;9635;52.078;8.648;2024-03-02T16:40:29;4.40;;;3.25;;
19004;SDS011;9635;52.078;8.648;2024-03-02T16:45:34;3.08;;;2.72;;
19004;SDS011;9635;52.078;8.648;2024-03-02T16:50:37;6.63;;;4.20;;
19004;SDS011;9635;52.078;8.648;2024-03-02T16:55:40;4.38;;;3.47;;
19004;SDS011;9635;52.078;8.648;2024-03-02T17:00:45;3.63;;;2.80;;
19004;SDS011;9635;52.078;8.648;2024-03-02T17:05:48;4.70;;;3.28;;
19004;SDS011;9635;52.078;8.648;2024-03-02T17:10:51;6.78;;;4.00;;
19004;SDS011;9635;52.078;8.648;2024-03-02T17:15:56;4.63;;;3.60;;
19004;SDS011;9635;52.078;8.648;2024-03-02T17:20:59;7.15;;;4.32;;
19004;SDS011;9635;52.078;8.648;2024-03-02T17:26:02;4.55;;;3.28;;
19004;SDS011;9635;52.078;8.648;2024-03-02T17:31:06;4.45;;;3.70;;
19004;SDS011;9635;52.078;8.648;2024-03-02T17:36:10;5.82;;;3.83;;
19004;SDS011;9635;52.078;8.648;2024-03-02T17:41:14;3.97;;;2.80;;
19004;SDS011;9635;52.078;8.648;2024-03-02T17:46:19;4.47;;;3.08;;
19004;SDS011;9635;52.078;8.648;2024-03-02T17:51:22;5.72;;;4.20;;
19004;SDS011;9635;52.078;8.648;2024-03-02T17:56:26;6.47;;;4.05;;
19004;SDS011;9635;52.078;8.648;2024-03-02T18:01:30;7.78;;;3.88;;
19004;SDS011;9635;52.078;8.648;2024-03-02T18:06:33;3.97;;;3.35;;
19004;SDS011;9635;52.078;8.648;2024-03-02T18:11:36;6.20;;;4.18;;
19004;SDS011;9635;52.078;8.648;2024-03-02T18:16:42;5.10;;;4.25;;
19004;SDS011;9635;52.078;8.648;2024-03-02T18:21:45;7.60;;;4.93;;
19004;SDS011;9635;52.078;8.648;2024-03-02T18:26:50;6.57;;;5.28;;
19004;SDS011;9635;52.078;8.648;2024-03-02T18:31:55;11.23;;;5.70;;
19004;SDS011;9635;52.078;8.648;2024-03-02T18:36:59;11.80;;;7.55;;
19004;SDS011;9635;52.078;8.648;2024-03-02T18:42:02;11.50;;;6.60;;
19004;SDS011;9635;52.078;8.648;2024-03-02T18:47:07;10.30;;;6.93;;
19004;SDS011;9635;52.078;8.648;2024-03-02T18:52:13;7.32;;;5.68;;
19004;SDS011;9635;52.078;8.648;2024-03-02T18:57:19;10.98;;;5.43;;
19004;SDS011;9635;52.078;8.648;2024-03-02T19:02:24;6.22;;;5.05;;
19004;SDS011;9635;52.078;8.648;2024-03-02T19:07:28;8.52;;;5.70;;
19004;SDS011;9635;52.078;8.648;2024-03-02T19:12:32;9.75;;;6.25;;
19004;SDS011;9635;52.078;8.648;2024-03-02T19:17:36;8.93;;;5.85;;
19004;SDS011;9635;52.078;8.648;2024-03-02T19:22:39;7.20;;;5.22;;
19004;SDS011;9635;52.078;8.648;2024-03-02T19:27:43;8.07;;;5.53;;
19004;SDS011;9635;52.078;8.648;2024-03-02T19:32:48;8.05;;;5.72;;
19004;SDS011;9635;52.078;8.648;2024-03-02T19:37:51;7.45;;;5.75;;
19004;SDS011;9635;52.078;8.648;2024-03-02T19:42:56;7.78;;;5.80;;
19004;SDS011;9635;52.078;8.648;2024-03-02T19:48:01;9.77;;;5.93;;
19004;SDS011;9635;52.078;8.648;2024-03-02T19:53:05;10.93;;;6.35;;
19004;SDS011;9635;52.078;8.648;2024-03-02T19:58:08;8.63;;;5.70;;
19004;SDS011;9635;52.078;8.648;2024-03-02T20:03:13;9.32;;;6.32;;
19004;SDS011;9635;52.078;8.648;2024-03-02T20:08:16;15.82;;;6.97;;
19004;SDS011;9635;52.078;8.648;2024-03-02T20:18:50;12.80;;;8.55;;
19004;SDS011;9635;52.078;8.648;2024-03-02T20:23:54;14.30;;;9.13;;
19004;SDS011;9635;52.078;8.648;2024-03-02T20:28:57;12.95;;;8.75;;
19004;SDS011;9635;52.078;8.648;2024-03-02T20:34:01;16.42;;;9.40;;
19004;SDS011;9635;52.078;8.648;2024-03-02T20:39:04;14.55;;;8.70;;
19004;SDS011;9635;52.078;8.648;2024-03-02T20:44:07;16.00;;;9.15;;
19004;SDS011;9635;52.078;8.648;2024-03-02T20:49:12;14.48;;;8.88;;
19004;SDS011;9635;52.078;8.648;2024-03-02T20:54:15;13.90;;;9.30;;
19004;SDS011;9635;52.078;8.648;2024-03-02T20:59:18;13.63;;;8.40;;
19004;SDS011;9635;52.078;8.648;2024-03-02T21:04:22;14.85;;;9.75;;
19004;SDS011;9635;52.078;8.648;2024-03-02T21:09:25;16.42;;;9.45;;
19004;SDS011;9635;52.078;8.648;2024-03-02T21:14:28;15.40;;;9.77;;
19004;SDS011;9635;52.078;8.648;2024-03-02T21:19:33;15.48;;;9.48;;
19004;SDS011;9635;52.078;8.648;2024-03-02T21:24:36;15.02;;;9.43;;
19004;SDS011;9635;52.078;8.648;2024-03-02T21:29:42;15.52;;;10.70;;
19004;SDS011;9635;52.078;8.648;2024-03-02T21:34:46;16.45;;;9.98;;
19004;SDS011;9635;52.078;8.648;2024-03-02T21:39:49;15.38;;;9.45;;
19004;SDS011;9635;52.078;8.648;2024-03-02T21:44:52;15.52;;;9.80;;
19004;SDS011;9635;52.078;8.648;2024-03-02T21:49:57;15.68;;;8.75;;
19004;SDS011;9635;52.078;8.648;2024-03-02T21:55:00;14.98;;;9.40;;
19004;SDS011;9635;52.078;8.648;2024-03-02T22:00:04;14.98;;;9.60;;
19004;SDS011;9635;52.078;8.648;2024-03-02T22:05:15;15.32;;;9.80;;
19004;SDS011;9635;52.078;8.648;2024-03-02T22:10:18;15.13;;;9.43;;
19004;SDS011;9635;52.078;8.648;2024-03-02T22:15:21;17.30;;;9.30;;
19004;SDS011;9635;52.078;8.648;2024-03-02T22:20:25;14.32;;;9.02;;
19004;SDS011;9635;52.078;8.648;2024-03-02T22:25:28;16.02;;;9.35;;
19004;SDS011;9635;52.078;8.648;2024-03-02T22:30:31;17.20;;;8.88;;
19004;SDS011;9635;52.078;8.648;2024-03-02T22:35:35;15.55;;;9.20;;
19004;SDS011;9635;52.078;8.648;2024-03-02T22:40:38;13.65;;;9.13;;
19004;SDS011;9635;52.078;8.648;2024-03-02T22:45:41;14.35;;;9.02;;
19004;SDS011;9635;52.078;8.648;2024-03-02T22:50:46;14.45;;;9.50;;
19004;SDS011;9635;52.078;8.648;2024-03-02T22:55:49;19.60;;;9.63;;
19004;SDS011;9635;52.078;8.648;2024-03-02T23:00:52;13.73;;;8.60;;
19004;SDS011;9635;52.078;8.648;2024-03-02T23:06:00;17.33;;;9.70;;
19004;SDS011;9635;52.078;8.648;2024-03-02T23:11:04;14.90;;;9.45;;
19004;SDS011;9635;52.078;8.648;2024-03-02T23:16:08;13.93;;;9.27;;
19004;SDS011;9635;52.078;8.648;2024-03-02T23:21:12;16.15;;;10.48;;
19004;SDS011;9635;52.078;8.648;2024-03-02T23:26:15;14.80;;;8.82;;
19004;SDS011;9635;52.078;8.648;2024-03-02T23:31:18;16.73;;;10.15;;
19004;SDS011;9635;52.078;8.648;2024-03-02T23:36:22;18.17;;;9.90;;
19004;SDS011;9635;52.078;8.648;2024-03-02T23:41:25;13.60;;;9.23;;
19004;SDS011;9635;52.078;8.648;2024-03-02T23:46:28;14.93;;;10.18;;
19004;SDS011;9635;52.078;8.648;2024-03-02T23:51:33;15.88;;;9.90;;
19004;SDS011;9635;52.078;8.648;2024-03-02T23:56:36;15.88;;;10.55;;
